createdAt,value
2023-01-31T00:00:08.027Z,87.40
2023-01-31T00:03:10.190Z,87.60
2023-01-31T00:06:18.432Z,87.70
2023-01-31T00:09:20.821Z,87.50
2023-01-31T00:12:22.831Z,87.40
2023-01-31T00:15:24.876Z,87.30
2023-01-31T00:18:27.351Z,87.20
2023-01-31T00:21:31.351Z,87.30
2023-01-31T00:24:33.401Z,87.40
2023-01-31T00:27:35.977Z,87.20
2023-01-31T00:30:38.227Z,87.30
2023-01-31T00:33:42.451Z,87.50
2023-01-31T00:36:44.633Z,87.30
2023-01-31T00:39:46.724Z,87.20
2023-01-31T00:42:48.741Z,87.60
2023-01-31T00:45:51.037Z,87.30
2023-01-31T00:48:53.947Z,87.60
2023-01-31T00:51:56.075Z,87.80
2023-01-31T00:54:58.128Z,87.90
2023-01-31T00:58:01.167Z,88.10
2023-01-31T01:01:10.308Z,87.90
2023-01-31T01:04:13.698Z,87.90
2023-01-31T01:07:15.757Z,88.00
2023-01-31T01:10:18.210Z,87.60
2023-01-31T01:13:20.255Z,87.80
2023-01-31T01:16:25.438Z,87.70
2023-01-31T01:19:27.520Z,87.50
2023-01-31T01:22:30.867Z,87.80
2023-01-31T01:25:43.211Z,87.50
2023-01-31T01:28:45.781Z,87.70
2023-01-31T01:31:48.017Z,87.50
2023-01-31T01:34:50.557Z,87.60
2023-01-31T01:37:52.686Z,87.70
2023-01-31T01:40:54.786Z,87.60
2023-01-31T01:43:58.643Z,87.60
2023-01-31T01:47:01.564Z,87.50
2023-01-31T01:50:08.455Z,87.60
2023-01-31T01:53:12.427Z,87.70
2023-01-31T01:56:19.889Z,87.60
2023-01-31T01:59:28.693Z,87.60
2023-01-31T02:02:30.951Z,88.10
2023-01-31T02:05:40.200Z,88.10
2023-01-31T02:08:43.628Z,87.80
2023-01-31T02:11:45.736Z,87.90
2023-01-31T02:14:50.132Z,88.30
2023-01-31T02:17:53.890Z,88.20
2023-01-31T02:21:33.686Z,88.00
2023-01-31T02:25:10.311Z,87.80
2023-01-31T02:28:18.195Z,88.00
2023-01-31T02:31:38.182Z,88.00
2023-01-31T02:34:52.602Z,87.60
2023-01-31T02:38:06.639Z,88.00
2023-01-31T02:41:27.795Z,87.40
2023-01-31T02:45:01.862Z,88.20
2023-01-31T02:48:22.873Z,88.20
2023-01-31T02:51:42.399Z,88.30
2023-01-31T02:55:30.917Z,88.20
2023-01-31T02:58:36.792Z,88.20
2023-01-31T03:01:43.782Z,88.30
2023-01-31T03:04:47.056Z,88.40
2023-01-31T03:07:58.707Z,88.40
2023-01-31T03:11:07.203Z,88.60
2023-01-31T03:14:27.569Z,88.60
2023-01-31T03:17:51.776Z,88.90
2023-01-31T03:21:03.749Z,88.90
2023-01-31T03:24:07.481Z,88.90
2023-01-31T03:27:09.684Z,89.20
2023-01-31T03:30:18.655Z,89.20
2023-01-31T03:33:29.958Z,89.30
2023-01-31T03:36:56.422Z,89.30
2023-01-31T03:40:01.300Z,89.40
2023-01-31T03:43:06.585Z,89.30
2023-01-31T03:46:22.696Z,89.40
2023-01-31T03:49:27.334Z,89.40
2023-01-31T03:52:38.975Z,89.40
2023-01-31T03:55:48.773Z,89.30
2023-01-31T03:58:57.091Z,89.50
2023-01-31T04:02:02.043Z,89.70
2023-01-31T04:05:09.283Z,89.50
2023-01-31T04:08:12.250Z,89.70
2023-01-31T04:11:16.240Z,89.70
2023-01-31T04:14:20.453Z,89.60
2023-01-31T04:17:22.527Z,90.20
2023-01-31T04:20:24.703Z,89.90
2023-01-31T04:23:26.833Z,90.00
2023-01-31T04:26:28.958Z,90.00
2023-01-31T04:29:31.021Z,90.00
2023-01-31T04:32:33.450Z,90.10
2023-01-31T04:35:35.677Z,90.00
2023-01-31T04:38:37.802Z,90.10
2023-01-31T04:41:39.820Z,90.10
2023-01-31T04:44:41.884Z,90.20
2023-01-31T04:47:43.886Z,90.20
2023-01-31T04:50:46.170Z,90.20
2023-01-31T04:53:48.353Z,90.30
2023-01-31T04:56:50.458Z,90.30
2023-01-31T04:59:52.522Z,90.20
2023-01-31T05:02:54.840Z,90.20
2023-01-31T05:05:56.890Z,90.10
2023-01-31T05:09:01.574Z,89.80
2023-01-31T05:12:05.261Z,89.80
2023-01-31T05:15:19.594Z,89.70
2023-01-31T05:18:22.425Z,89.60
2023-01-31T05:21:25.151Z,89.70
2023-01-31T05:24:33.079Z,89.60
2023-01-31T05:27:35.112Z,89.50
2023-01-31T05:30:37.781Z,89.60
2023-01-31T05:33:40.256Z,89.80
2023-01-31T05:36:45.289Z,89.70
2023-01-31T05:39:47.509Z,90.00
2023-01-31T05:43:00.033Z,89.80
2023-01-31T05:46:02.589Z,89.60
2023-01-31T05:49:05.130Z,89.50
2023-01-31T05:52:07.274Z,89.30
2023-01-31T05:55:09.559Z,89.20
2023-01-31T05:58:11.709Z,89.80
2023-01-31T06:01:13.727Z,88.90
2023-01-31T06:04:15.994Z,89.00
2023-01-31T06:07:18.262Z,88.90
2023-01-31T06:10:21.260Z,88.10
2023-01-31T06:13:23.541Z,87.80
2023-01-31T06:16:25.940Z,87.80
2023-01-31T06:19:28.050Z,87.60
2023-01-31T06:22:30.154Z,87.60
2023-01-31T06:25:32.175Z,87.70
2023-01-31T06:28:34.232Z,87.50
2023-01-31T06:31:36.425Z,87.50
2023-01-31T06:34:39.588Z,87.40
2023-01-31T06:37:41.621Z,87.40
2023-01-31T06:40:44.921Z,87.30
2023-01-31T06:43:47.267Z,87.40
2023-01-31T06:46:49.321Z,87.20
2023-01-31T06:49:52.463Z,87.30
2023-01-31T06:52:54.823Z,87.20
2023-01-31T06:55:56.925Z,87.40
2023-01-31T06:58:59.723Z,87.10
2023-01-31T07:02:01.752Z,87.30
2023-01-31T07:05:03.966Z,87.40
2023-01-31T07:08:06.144Z,87.60
2023-01-31T07:11:08.357Z,87.60
2023-01-31T07:14:10.528Z,87.80
2023-01-31T07:17:12.575Z,88.10
2023-01-31T07:20:14.639Z,88.10
2023-01-31T07:23:16.742Z,88.20
2023-01-31T07:26:18.882Z,88.30
2023-01-31T07:29:21.031Z,88.30
2023-01-31T07:32:23.084Z,88.50
2023-01-31T07:35:25.213Z,88.60
2023-01-31T07:38:28.828Z,88.70
2023-01-31T07:41:32.227Z,88.70
2023-01-31T07:44:34.336Z,88.50
2023-01-31T07:47:36.471Z,88.70
2023-01-31T07:50:38.651Z,88.70
2023-01-31T07:53:44.152Z,88.50
2023-01-31T07:56:47.555Z,88.60
2023-01-31T07:59:50.227Z,88.40
2023-01-31T08:03:11.112Z,88.90
2023-01-31T08:06:14.105Z,89.20
2023-01-31T08:09:16.363Z,88.20
2023-01-31T08:12:18.588Z,85.10
2023-01-31T08:15:20.923Z,80.30
2023-01-31T08:18:24.098Z,77.40
2023-01-31T08:21:26.292Z,74.70
2023-01-31T08:24:28.433Z,69.00
2023-01-31T08:27:31.509Z,66.90
2023-01-31T08:30:34.108Z,62.20
2023-01-31T08:33:38.145Z,60.80
2023-01-31T08:36:40.469Z,60.30
2023-01-31T08:39:44.482Z,57.80
2023-01-31T08:42:54.978Z,55.80
2023-01-31T08:45:57.223Z,53.90
2023-01-31T08:49:01.280Z,54.10
2023-01-31T08:52:03.547Z,51.00
2023-01-31T08:55:06.735Z,50.70
2023-01-31T08:58:08.898Z,50.20
2023-01-31T09:01:16.821Z,50.90
2023-01-31T09:04:18.972Z,48.80
2023-01-31T09:07:21.877Z,50.30
2023-01-31T09:10:24.921Z,47.80
2023-01-31T09:13:28.883Z,45.60
2023-01-31T09:16:31.385Z,44.70
2023-01-31T09:19:33.665Z,44.20
2023-01-31T09:22:36.194Z,41.30
2023-01-31T09:25:47.138Z,40.70
2023-01-31T09:28:51.207Z,39.60
2023-01-31T09:31:53.828Z,38.60
2023-01-31T09:34:55.934Z,39.30
2023-01-31T09:37:58.752Z,39.90
2023-01-31T09:41:04.229Z,41.10
2023-01-31T09:44:32.430Z,39.20
2023-01-31T09:47:38.548Z,39.10
2023-01-31T09:50:46.621Z,38.30
2023-01-31T09:53:48.943Z,38.40
2023-01-31T09:57:06.937Z,37.00
2023-01-31T10:00:31.893Z,35.60
2023-01-31T10:03:52.031Z,36.60
2023-01-31T10:07:17.568Z,34.40
2023-01-31T10:10:51.348Z,34.70
2023-01-31T10:13:58.793Z,34.00
2023-01-31T10:17:07.094Z,31.30
2023-01-31T10:20:20.259Z,30.60
2023-01-31T10:24:00.538Z,34.90
2023-01-31T10:27:17.734Z,32.60
2023-01-31T10:30:27.867Z,33.90
2023-01-31T10:33:40.369Z,33.30
2023-01-31T10:37:28.946Z,31.80
2023-01-31T10:40:37.771Z,36.10
2023-01-31T10:43:43.919Z,35.20
2023-01-31T10:46:47.852Z,35.20
2023-01-31T10:49:50.956Z,33.20
2023-01-31T10:53:14.049Z,29.80
2023-01-31T10:56:29.034Z,30.30
2023-01-31T10:59:36.845Z,30.20
2023-01-31T11:02:39.566Z,31.50
2023-01-31T11:05:59.639Z,31.80
2023-01-31T11:09:03.363Z,33.30
2023-01-31T11:12:08.539Z,33.70
2023-01-31T11:15:19.609Z,33.70
2023-01-31T11:18:35.097Z,31.60
2023-01-31T11:21:38.189Z,30.30
2023-01-31T11:24:41.499Z,31.10
2023-01-31T11:27:44.339Z,28.40
2023-01-31T11:30:50.326Z,29.00
2023-01-31T11:34:03.293Z,29.40
2023-01-31T11:37:13.593Z,28.50
2023-01-31T11:40:15.680Z,29.00
2023-01-31T11:43:20.365Z,30.00
2023-01-31T11:46:22.477Z,31.30
2023-01-31T11:49:30.904Z,31.40
2023-01-31T11:52:34.587Z,30.00
2023-01-31T11:55:44.622Z,31.20
2023-01-31T11:58:49.291Z,31.10
2023-01-31T12:01:56.838Z,31.30
2023-01-31T12:05:00.806Z,31.10
2023-01-31T12:08:03.182Z,33.00
2023-01-31T12:11:20.661Z,35.20
2023-01-31T12:14:25.267Z,39.10
2023-01-31T12:17:30.359Z,41.70
2023-01-31T12:20:38.198Z,44.20
2023-01-31T12:23:51.960Z,47.00
2023-01-31T12:26:54.274Z,48.70
2023-01-31T12:30:03.409Z,50.60
2023-01-31T12:33:32.591Z,50.90
2023-01-31T12:37:16.474Z,52.50
2023-01-31T12:40:50.035Z,54.20
2023-01-31T12:43:57.920Z,54.60
2023-01-31T12:47:16.310Z,55.20
2023-01-31T12:51:05.065Z,56.00
2023-01-31T12:54:07.173Z,54.50
2023-01-31T12:57:23.585Z,54.00
2023-01-31T13:00:29.360Z,53.70
2023-01-31T13:03:34.200Z,53.60
2023-01-31T13:06:42.203Z,53.40
2023-01-31T13:09:52.808Z,52.60
2023-01-31T13:12:57.181Z,53.50
2023-01-31T13:16:12.124Z,52.50
2023-01-31T13:19:31.717Z,52.40
2023-01-31T13:22:41.651Z,52.70
2023-01-31T13:26:08.360Z,52.40
2023-01-31T13:29:19.341Z,52.00
2023-01-31T13:32:33.281Z,52.10
2023-01-31T13:35:40.970Z,52.10
2023-01-31T13:38:45.043Z,52.30
2023-01-31T13:41:47.284Z,52.30
2023-01-31T13:44:50.309Z,53.00
2023-01-31T13:48:01.957Z,52.70
2023-01-31T13:51:24.554Z,54.20
2023-01-31T13:54:35.589Z,53.90
2023-01-31T13:57:46.688Z,54.50
2023-01-31T14:01:09.470Z,54.60
2023-01-31T14:04:18.108Z,54.80
2023-01-31T14:07:22.337Z,55.50
2023-01-31T14:10:29.050Z,55.50
2023-01-31T14:13:33.793Z,55.90
2023-01-31T14:16:42.469Z,56.00
2023-01-31T14:19:44.621Z,55.50
2023-01-31T14:23:24.981Z,55.30
2023-01-31T14:26:53.859Z,55.40
2023-01-31T14:30:19.590Z,55.90
2023-01-31T14:33:23.383Z,56.30
2023-01-31T14:36:42.143Z,56.80
2023-01-31T14:40:03.801Z,56.30
2023-01-31T14:43:20.752Z,56.20
2023-01-31T14:46:31.485Z,55.70
2023-01-31T14:50:00.877Z,55.80
2023-01-31T14:53:14.558Z,56.40
2023-01-31T14:56:52.343Z,56.40
2023-01-31T14:59:57.170Z,56.30
2023-01-31T15:03:31.276Z,56.50
2023-01-31T15:06:43.975Z,56.80
2023-01-31T15:09:48.070Z,57.90
2023-01-31T15:12:56.797Z,58.00
2023-01-31T15:15:59.116Z,58.40
2023-01-31T15:19:08.153Z,59.20
2023-01-31T15:22:11.649Z,58.90
2023-01-31T15:25:39.817Z,59.20
2023-01-31T15:28:43.842Z,59.30
2023-01-31T15:31:48.789Z,59.10
2023-01-31T15:35:23.704Z,59.20
2023-01-31T15:38:47.233Z,59.50
2023-01-31T15:41:49.549Z,59.10
2023-01-31T15:45:11.649Z,59.60
2023-01-31T15:48:16.794Z,59.70
2023-01-31T15:51:20.219Z,59.20
2023-01-31T15:54:22.196Z,59.10
2023-01-31T15:57:34.814Z,59.70
2023-01-31T16:00:38.610Z,59.80
2023-01-31T16:03:42.684Z,59.30
2023-01-31T16:06:47.447Z,60.00
2023-01-31T16:09:50.079Z,60.10
2023-01-31T16:12:53.533Z,60.10
2023-01-31T16:15:56.142Z,60.60
2023-01-31T16:18:59.938Z,60.30
2023-01-31T16:22:02.549Z,60.50
2023-01-31T16:25:05.245Z,60.20
2023-01-31T16:28:11.552Z,60.70
2023-01-31T16:31:19.073Z,60.80
2023-01-31T16:34:36.434Z,61.20
2023-01-31T16:37:41.753Z,61.40
2023-01-31T16:40:53.206Z,61.80
2023-01-31T16:43:56.090Z,62.00
2023-01-31T16:46:58.237Z,62.10
2023-01-31T16:50:22.618Z,62.10
2023-01-31T16:53:34.702Z,62.40
2023-01-31T16:56:36.728Z,62.60
2023-01-31T16:59:41.136Z,62.60
2023-01-31T17:02:43.156Z,63.00
2023-01-31T17:05:47.589Z,63.10
2023-01-31T17:08:50.105Z,63.40
2023-01-31T17:11:54.769Z,63.30
2023-01-31T17:15:00.836Z,64.10
2023-01-31T17:18:04.655Z,63.80
2023-01-31T17:21:07.045Z,63.80
2023-01-31T17:24:20.230Z,64.20
2023-01-31T17:27:23.138Z,64.40
2023-01-31T17:30:27.966Z,64.60
2023-01-31T17:33:30.205Z,64.80
2023-01-31T17:36:32.386Z,64.80
2023-01-31T17:39:35.053Z,64.60
2023-01-31T17:42:38.996Z,64.90
2023-01-31T17:45:41.883Z,65.20
2023-01-31T17:48:44.513Z,65.20
2023-01-31T17:51:46.628Z,66.20
2023-01-31T17:54:49.191Z,66.10
2023-01-31T17:57:52.121Z,65.90
2023-01-31T18:00:59.273Z,65.50
2023-01-31T18:04:03.274Z,65.90
2023-01-31T18:07:05.368Z,65.60
2023-01-31T18:10:08.309Z,65.90
2023-01-31T18:13:11.218Z,66.30
2023-01-31T18:16:16.762Z,67.50
2023-01-31T18:19:18.886Z,69.40
2023-01-31T18:22:21.208Z,68.20
2023-01-31T18:25:23.772Z,69.70
2023-01-31T18:28:26.111Z,70.20
2023-01-31T18:31:28.575Z,71.50
2023-01-31T18:34:31.372Z,71.50
2023-01-31T18:37:35.277Z,70.90
2023-01-31T18:40:39.904Z,71.20
2023-01-31T18:43:43.331Z,73.30
2023-01-31T18:46:45.423Z,73.80
2023-01-31T18:49:47.526Z,73.60
2023-01-31T18:52:49.541Z,74.10
2023-01-31T18:56:05.540Z,73.80
2023-01-31T18:59:07.614Z,74.80
2023-01-31T19:02:11.852Z,74.30
2023-01-31T19:05:13.855Z,74.00
2023-01-31T19:08:15.890Z,74.10
2023-01-31T19:11:19.877Z,74.90
2023-01-31T19:14:22.724Z,74.40
2023-01-31T19:17:24.977Z,74.30
2023-01-31T19:20:27.087Z,73.90
2023-01-31T19:23:29.085Z,74.50
2023-01-31T19:26:32.996Z,74.20
2023-01-31T19:29:35.189Z,74.00
2023-01-31T19:32:37.259Z,75.80
2023-01-31T19:35:39.330Z,76.90
2023-01-31T19:38:42.472Z,78.50
2023-01-31T19:41:44.560Z,78.50
2023-01-31T19:44:46.609Z,78.40
2023-01-31T19:47:48.568Z,79.00
2023-01-31T19:50:50.735Z,79.90
2023-01-31T19:54:01.353Z,79.80
2023-01-31T19:57:03.447Z,80.10
2023-01-31T20:00:06.286Z,80.60
2023-01-31T20:03:08.366Z,81.20
2023-01-31T20:06:13.537Z,80.20
2023-01-31T20:09:20.138Z,80.80
2023-01-31T20:12:22.688Z,81.20
2023-01-31T20:15:25.747Z,82.10
2023-01-31T20:18:27.907Z,81.20
2023-01-31T20:21:30.099Z,81.30
2023-01-31T20:24:32.164Z,80.20
2023-01-31T20:27:35.463Z,79.90
2023-01-31T20:30:37.440Z,79.80
2023-01-31T20:33:39.604Z,80.50
2023-01-31T20:36:41.620Z,80.60
2023-01-31T20:39:43.767Z,80.90
2023-01-31T20:42:47.106Z,81.50
2023-01-31T20:45:50.019Z,82.30
2023-01-31T20:48:52.898Z,83.00
2023-01-31T20:51:55.059Z,82.90
2023-01-31T20:54:57.154Z,82.60
2023-01-31T20:57:59.428Z,82.90
2023-01-31T21:01:05.518Z,82.40
2023-01-31T21:04:08.283Z,84.30
2023-01-31T21:07:10.400Z,84.00
2023-01-31T21:10:13.169Z,85.80
2023-01-31T21:13:15.606Z,85.70
2023-01-31T21:16:17.789Z,84.90
2023-01-31T21:19:19.883Z,86.00
2023-01-31T21:22:21.943Z,85.20
2023-01-31T21:25:23.999Z,88.00
2023-01-31T21:28:27.119Z,87.80
2023-01-31T21:31:30.331Z,86.90
2023-01-31T21:34:32.509Z,87.90
2023-01-31T21:37:34.709Z,87.20
2023-01-31T21:40:39.186Z,88.10
2023-01-31T21:43:41.549Z,86.60
2023-01-31T21:46:43.683Z,87.30
2023-01-31T21:49:45.743Z,88.00
2023-01-31T21:52:47.915Z,88.50
2023-01-31T21:55:50.053Z,89.10
2023-01-31T21:58:54.652Z,90.10
2023-01-31T22:01:56.766Z,89.60
2023-01-31T22:04:58.899Z,89.70
2023-01-31T22:08:01.122Z,90.00
2023-01-31T22:11:16.687Z,90.60
2023-01-31T22:14:18.909Z,90.10
2023-01-31T22:17:20.906Z,90.00
2023-01-31T22:20:23.495Z,89.70
2023-01-31T22:23:25.761Z,90.10
2023-01-31T22:26:30.845Z,90.40
2023-01-31T22:29:33.023Z,90.50
2023-01-31T22:32:35.159Z,90.80
2023-01-31T22:35:37.444Z,90.50
2023-01-31T22:38:39.853Z,90.50
2023-01-31T22:41:44.676Z,90.80
2023-01-31T22:44:46.790Z,90.60
2023-01-31T22:47:50.380Z,90.50
2023-01-31T22:50:58.746Z,91.30
2023-01-31T22:54:00.836Z,90.90
2023-01-31T22:57:02.897Z,90.60
2023-01-31T23:00:05.656Z,90.90
2023-01-31T23:03:08.155Z,90.90
2023-01-31T23:06:11.134Z,91.10
2023-01-31T23:09:13.203Z,90.70
2023-01-31T23:12:15.535Z,90.70
2023-01-31T23:15:17.683Z,90.80
2023-01-31T23:18:19.839Z,90.70
2023-01-31T23:21:21.859Z,90.60
2023-01-31T23:24:23.903Z,90.50
2023-01-31T23:27:26.257Z,90.70
2023-01-31T23:30:28.511Z,90.60
2023-01-31T23:33:30.564Z,90.90
2023-01-31T23:36:32.607Z,91.00
2023-01-31T23:39:34.597Z,90.70
2023-01-31T23:42:39.497Z,90.80
2023-01-31T23:45:42.914Z,90.80
2023-01-31T23:48:44.986Z,90.80
2023-01-31T23:51:47.010Z,90.40
2023-01-31T23:54:49.065Z,90.70
2023-01-31T23:57:51.180Z,90.90
